Wednesday, February 21, 2018, 8:16 PM EST
Back to Local

KMQE, Milton Blue Hill Observ

Location: Milton, MA, United States Lat: 42.217
Local Time: 8:16 PM EST ( 1:16 GMT) Lon: -71.117
Time Zone: US/Eastern Elev: 629 ft

Show me the last for .
Show Decoded

2018-02-21 19:56 METAR KMQE 220056Z AUTO 28011KT 17/13 A3023 RMK AO1 SLP248 T01670133 =
2018-02-21 18:56 METAR KMQE 212356Z AUTO 21015KT 16/13 A3020 RMK AO1 SLP235 T01610133 10206 20161
                 53029 =
2018-02-21 17:56 METAR KMQE 212256Z AUTO 20015G20KT 17/13 A3016 RMK AO1 SLP222 T01670128 =
2018-02-21 16:56 METAR KMQE 212156Z AUTO 19014G22KT 18/13 A3013 RMK AO1 SLP212 T01830133 =
2018-02-21 15:56 METAR KMQE 212056Z AUTO 19017G22KT 20/13 A3011 RMK AO1 SLP205 T02000133 56011 =
2018-02-21 14:56 METAR KMQE 211956Z AUTO 19019KT 21/13 A3011 RMK AO1 SLP206 T02060133 =
2018-02-21 13:56 METAR KMQE 211856Z AUTO 19011G19KT 20/13 A3012 RMK AO1 SLP209 T02000133 =
2018-02-21 12:56 METAR KMQE 211756Z AUTO 20016G23KT 20/13 A3014 RMK AO1 SLP217 T02000133 10200
                 20128 58022 =
2018-02-21 11:56 METAR KMQE 211656Z AUTO 20017G21KT 19/13 A3017 RMK AO1 PK WND 21026/1607 SLP227
                 T01890133 =
2018-02-21 10:56 METAR KMQE 211556Z AUTO 21016G24KT 17/13 A3020 RMK AO1 PK WND 20026/1510 SLP236
                 T01720133 =
2018-02-21 09:56 METAR KMQE 211456Z AUTO 23013G24KT 16/14 A3021 RMK AO1 PK WND 22029/1403 SLP240
                 T01560139 58000 =
2018-02-21 08:56 METAR KMQE 211356Z AUTO 22013G24KT 15/13 A3021 RMK AO1 PK WND 22028/1327 SLP242
                 T01500133 =
2018-02-21 07:56 METAR KMQE 211256Z AUTO 23015G24KT 14/13 A3021 RMK AO1 PK WND 21026/1158 SLP242
                 T01390133 =
2018-02-21 06:56 METAR KMQE 211156Z AUTO 23015G26KT 13/13 A3021 RMK AO1 PK WND 22027/1144 SLP241
                 T01280128 10128 20100 56008 =
2018-02-21 05:56 METAR KMQE 211056Z AUTO 22015KT 12/12 A3022 RMK AO1 SLP243 T01170117 =
2018-02-21 04:56 METAR KMQE 210956Z AUTO 21016KT 12/12 A3023 RMK AO1 SLP246 T01170117 =
2018-02-21 03:56 METAR KMQE 210856Z AUTO 20015KT 12/11 A3023 RMK AO1 SLP248 T01170111 58010 =
2018-02-21 02:56 METAR KMQE 210756Z AUTO 20015KT 11/11 A3025 RMK AO1 SLP253 T01110106 =
2018-02-21 01:56 METAR KMQE 210656Z AUTO 20013KT 11/10 A3026 RMK AO1 SLP257 T01060100 =
2018-02-21 00:56 METAR KMQE 210556Z AUTO 20013KT 11/10 A3027 RMK AO1 SLP259 T01060100 10139 20106
                 50002 =
2018-02-20 23:56 METAR KMQE 210456Z AUTO 22016KT 12/11 A3027 RMK AO1 SLP260 T01220106 402000089 =
2018-02-20 22:56 METAR KMQE 210356Z AUTO 21013KT 12/10 A3026 RMK AO1 SLP260 T01220100 =
2018-02-20 21:56 METAR KMQE 210256Z AUTO 22016KT 13/11 A3026 RMK AO1 SLPNO T01330106 50005 =
2018-02-20 20:56 METAR KMQE 210156Z AUTO 22013G19KT 13/11 A3026 RMK AO1 SLP258 T01280106 =

Support USWX by starting your Amazon purchase here.